Time;durP1;ratioP1;P1;durP2;ratioP2;P2;SDS_P1;SDS_P2;PMS_P1;PMS_P2;Temp;Humidity;BMP_temperature;BMP_pressure;BME280_temperature;BME280_humidity;BME280_pressure;Samples;Min_cycle;Max_cycle;Signal;HPM_P1;HPM_P2
2023/10/29 04:03:10;;;;;;;1.60;1.00;;;27.00;36.60;;;;;;4905716;28;49228;-82
2023/10/29 04:05:37;;;;;;;1.10;0.82;;;27.00;36.60;;;;;;4913194;28;45572;-82
2023/10/29 04:08:02;;;;;;;1.52;0.90;;;27.00;36.60;;;;;;4916680;28;45680;-81
2023/10/29 04:10:28;;;;;;;2.27;0.80;;;27.00;36.60;;;;;;4897626;28;46025;-82
2023/10/29 04:12:54;;;;;;;1.57;0.90;;;27.00;36.60;;;;;;4915612;28;45325;-81
2023/10/29 04:15:23;;;;;;;0.63;0.60;;;27.00;36.60;;;;;;4911545;28;45430;-81
2023/10/29 04:17:49;;;;;;;0.77;0.60;;;27.00;36.60;;;;;;4927831;28;45292;-80
2023/10/29 04:20:15;;;;;;;1.00;0.70;;;26.90;36.50;;;;;;4907771;28;48162;-82
2023/10/29 04:22:42;;;;;;;1.43;0.80;;;26.90;36.50;;;;;;4904795;28;45403;-82
2023/10/29 04:25:08;;;;;;;2.20;0.82;;;27.00;36.60;;;;;;4867815;28;45166;-81
2023/10/29 04:27:33;;;;;;;1.63;0.70;;;26.90;36.50;;;;;;4900203;28;46677;-82
2023/10/29 04:29:59;;;;;;;1.40;0.80;;;26.90;36.50;;;;;;4922584;28;45494;-81
2023/10/29 04:32:25;;;;;;;1.00;0.90;;;26.90;36.50;;;;;;4906195;28;45533;-81
2023/10/29 04:34:51;;;;;;;1.00;0.80;;;26.90;36.50;;;;;;4928612;28;45588;-82
2023/10/29 04:37:17;;;;;;;1.38;0.98;;;26.90;36.50;;;;;;4907872;28;45664;-81
2023/10/29 04:39:44;;;;;;;1.07;0.90;;;26.90;36.60;;;;;;4881765;28;47146;-82
2023/10/29 04:42:10;;;;;;;1.23;0.75;;;26.90;36.50;;;;;;4903068;28;45513;-81
2023/10/29 04:44:35;;;;;;;1.17;0.80;;;26.90;36.50;;;;;;4913413;28;45302;-82
2023/10/29 04:47:03;;;;;;;1.60;0.90;;;26.90;36.50;;;;;;4875751;28;45343;-82
2023/10/29 04:49:29;;;;;;;1.20;0.80;;;26.90;36.50;;;;;;4888786;28;46637;-81
2023/10/29 04:51:55;;;;;;;0.90;0.70;;;26.90;36.50;;;;;;4880046;28;45531;-81
2023/10/29 04:54:21;;;;;;;1.20;0.90;;;26.90;36.50;;;;;;4915204;28;44938;-82
2023/10/29 04:56:47;;;;;;;1.10;0.80;;;26.90;36.50;;;;;;4906319;28;45159;-82
2023/10/29 04:59:13;;;;;;;1.23;0.80;;;26.90;36.50;;;;;;4913278;28;46005;-82
2023/10/29 05:01:38;;;;;;;1.20;0.90;;;26.90;36.50;;;;;;4907120;28;45637;-82
2023/10/29 05:04:05;;;;;;;0.90;0.70;;;26.90;36.50;;;;;;4897892;28;45230;-82
2023/10/29 05:06:31;;;;;;;1.20;0.70;;;26.90;36.40;;;;;;4893007;28;44683;-81
2023/10/29 05:08:58;;;;;;;1.35;0.90;;;26.90;36.40;;;;;;4898334;28;45785;-80
2023/10/29 05:11:23;;;;;;;0.95;0.80;;;26.90;36.40;;;;;;4911077;28;45200;-82
2023/10/29 05:13:49;;;;;;;1.30;0.82;;;26.90;36.40;;;;;;4896075;28;45555;-82
2023/10/29 05:16:15;;;;;;;1.30;0.77;;;26.90;36.40;;;;;;4891013;28;45786;-82
2023/10/29 05:18:42;;;;;;;1.75;1.08;;;26.90;36.40;;;;;;4912431;28;46210;-81
2023/10/29 05:21:08;;;;;;;1.40;0.90;;;26.90;36.40;;;;;;4909451;28;45202;-82
2023/10/29 05:23:34;;;;;;;1.23;0.75;;;26.90;36.40;;;;;;4913440;28;45373;-82
2023/10/29 05:26:00;;;;;;;1.00;0.70;;;26.90;36.40;;;;;;4893789;28;45156;-81
2023/10/29 05:28:26;;;;;;;1.10;0.70;;;26.90;36.40;;;;;;4897533;28;46249;-82
2023/10/29 05:30:53;;;;;;;1.05;0.85;;;26.90;36.40;;;;;;4902415;28;46076;-81
2023/10/29 05:33:20;;;;;;;0.90;0.70;;;26.90;36.40;;;;;;4910306;28;44839;-82
2023/10/29 05:35:46;;;;;;;1.73;0.90;;;26.90;36.40;;;;;;4887958;28;45415;-82
2023/10/29 05:38:12;;;;;;;0.80;0.67;;;26.90;36.40;;;;;;4896119;28;46452;-81
2023/10/29 05:40:38;;;;;;;1.10;0.67;;;26.90;36.40;;;;;;4873750;28;46357;-82
2023/10/29 05:43:04;;;;;;;1.05;0.68;;;26.90;36.40;;;;;;4899046;28;45523;-81
2023/10/29 05:45:30;;;;;;;1.40;0.60;;;26.80;36.30;;;;;;4876436;28;45760;-82
2023/10/29 05:47:56;;;;;;;1.23;0.70;;;26.80;36.30;;;;;;4897026;28;45643;-81
2023/10/29 05:50:23;;;;;;;0.77;0.57;;;26.90;36.40;;;;;;4893380;28;45117;-81
2023/10/29 05:52:49;;;;;;;1.20;0.70;;;26.80;36.30;;;;;;4896303;28;45606;-82
2023/10/29 05:55:18;;;;;;;0.83;0.60;;;26.90;36.40;;;;;;4909815;28;45539;-82
2023/10/29 05:57:46;;;;;;;1.80;0.80;;;26.80;36.30;;;;;;4899092;28;45807;-81
2023/10/29 06:00:15;;;;;;;0.83;0.60;;;26.80;36.30;;;;;;4904282;28;45716;-81
2023/10/29 06:02:41;;;;;;;0.82;0.70;;;26.80;36.30;;;;;;4880256;28;47305;-81
2023/10/29 06:05:11;;;;;;;0.97;0.77;;;26.80;36.30;;;;;;4894157;28;45022;-82
2023/10/29 06:07:41;;;;;;;1.33;0.65;;;26.90;36.40;;;;;;4913964;28;45708;-82
2023/10/29 06:10:10;;;;;;;0.88;0.70;;;26.80;36.30;;;;;;4902546;28;45477;-81
2023/10/29 06:12:36;;;;;;;0.95;0.63;;;26.80;36.30;;;;;;4913881;28;45558;-81
2023/10/29 06:15:14;;;;;;;1.05;0.75;;;26.80;36.30;;;;;;4914325;28;45493;-81
2023/10/29 06:17:42;;;;;;;0.70;0.60;;;26.80;36.30;;;;;;4911750;28;66138;-82
2023/10/29 06:20:16;;;;;;;1.07;0.63;;;26.80;36.30;;;;;;4894502;28;45149;-82
2023/10/29 06:22:43;;;;;;;0.77;0.60;;;26.80;36.30;;;;;;4897232;28;45540;-82
2023/10/29 06:25:09;;;;;;;0.67;0.50;;;26.80;36.30;;;;;;4911693;28;45924;-81
2023/10/29 06:27:35;;;;;;;0.90;0.80;;;26.80;36.30;;;;;;4910882;28;45597;-81
2023/10/29 06:30:16;;;;;;;1.00;0.60;;;26.80;36.30;;;;;;4907992;28;45443;-82
2023/10/29 06:32:42;;;;;;;0.93;0.60;;;26.80;36.30;;;;;;4911370;28;45716;-81
2023/10/29 06:35:08;;;;;;;0.57;0.55;;;26.80;36.30;;;;;;4898056;28;45552;-82
2023/10/29 06:37:33;;;;;;;0.80;0.60;;;26.80;36.30;;;;;;4895337;28;45530;-80
2023/10/29 06:39:59;;;;;;;0.63;0.50;;;26.80;36.30;;;;;;4899061;28;45716;-81
2023/10/29 06:42:25;;;;;;;1.27;0.60;;;26.70;36.20;;;;;;4883187;28;46469;-82
2023/10/29 06:44:51;;;;;;;0.90;0.60;;;26.70;36.20;;;;;;4932504;28;45009;-82
2023/10/29 06:47:18;;;;;;;1.20;0.60;;;26.70;36.20;;;;;;4893172;28;46651;-81
2023/10/29 06:49:44;;;;;;;0.90;0.60;;;26.70;36.20;;;;;;4900071;28;45468;-81
2023/10/29 06:52:10;;;;;;;0.95;0.60;;;26.70;36.20;;;;;;4910710;28;46145;-82
2023/10/29 06:54:36;;;;;;;1.23;0.68;;;26.70;36.30;;;;;;4900459;28;45497;-82
2023/10/29 06:57:02;;;;;;;1.10;0.70;;;26.70;36.20;;;;;;4909701;28;47082;-81
2023/10/29 06:59:33;;;;;;;0.93;0.60;;;26.70;36.20;;;;;;4909697;28;45409;-80
2023/10/29 07:01:59;;;;;;;0.90;0.43;;;26.70;36.20;;;;;;4917936;28;45416;-86
2023/10/29 07:04:25;;;;;;;0.82;0.60;;;26.70;36.20;;;;;;4921080;28;45260;-82
2023/10/29 07:06:51;;;;;;;0.60;0.50;;;26.70;36.20;;;;;;4951891;23;46547;-52
2023/10/29 07:09:17;;;;;;;1.10;0.57;;;26.70;36.20;;;;;;4972938;28;45083;-52
2023/10/29 07:11:43;;;;;;;1.03;0.70;;;26.70;36.20;;;;;;4939983;28;45550;-52
2023/10/29 07:14:09;;;;;;;0.73;0.60;;;26.70;36.20;;;;;;4958577;28;45665;-51
2023/10/29 07:16:35;;;;;;;0.50;0.45;;;26.70;36.20;;;;;;4933115;28;46256;-51
2023/10/29 07:19:00;;;;;;;0.52;0.50;;;26.70;36.20;;;;;;4968969;28;45498;-50
2023/10/29 07:21:26;;;;;;;0.70;0.50;;;26.60;36.20;;;;;;4962646;28;45203;-52
2023/10/29 07:23:51;;;;;;;0.60;0.60;;;26.60;36.20;;;;;;4962578;28;45572;-50
2023/10/29 07:26:17;;;;;;;0.63;0.50;;;26.60;36.20;;;;;;4960450;28;45935;-51
2023/10/29 07:28:43;;;;;;;0.77;0.50;;;26.60;36.20;;;;;;4966485;28;46277;-53
2023/10/29 07:31:08;;;;;;;0.90;0.57;;;26.70;36.30;;;;;;4948688;28;45367;-50
2023/10/29 07:33:34;;;;;;;1.00;0.53;;;26.60;36.20;;;;;;4966369;28;45579;-51
2023/10/29 07:36:03;;;;;;;0.57;0.45;;;26.60;36.20;;;;;;4962673;28;45435;-52
2023/10/29 07:38:29;;;;;;;0.73;0.60;;;26.60;36.20;;;;;;4967842;28;45846;-51
2023/10/29 07:40:54;;;;;;;1.13;0.70;;;26.60;36.20;;;;;;4957764;28;45779;-53
2023/10/29 07:43:19;;;;;;;0.53;0.43;;;26.60;36.20;;;;;;4963345;28;46596;-53
2023/10/29 07:45:47;;;;;;;0.80;0.60;;;26.60;36.20;;;;;;4951513;28;46343;-54
2023/10/29 07:48:13;;;;;;;0.60;0.50;;;26.60;36.20;;;;;;4969145;28;45390;-54
2023/10/29 07:50:39;;;;;;;0.75;0.60;;;26.60;36.20;;;;;;4942923;28;45689;-51
2023/10/29 07:53:04;;;;;;;0.87;0.60;;;26.60;36.20;;;;;;4961231;28;45615;-53
2023/10/29 07:55:30;;;;;;;0.50;0.50;;;26.60;36.20;;;;;;4960831;28;45187;-55
2023/10/29 07:57:56;;;;;;;0.80;0.60;;;26.60;36.20;;;;;;4949384;28;44836;-55
2023/10/29 08:00:21;;;;;;;0.50;0.50;;;26.60;36.20;;;;;;4959200;28;47753;-52
2023/10/29 08:02:47;;;;;;;0.70;0.50;;;26.60;36.20;;;;;;4959678;28;44753;-54
2023/10/29 08:05:14;;;;;;;0.50;0.50;;;26.60;36.20;;;;;;4964056;28;46045;-52
2023/10/29 08:07:40;;;;;;;0.80;0.60;;;26.60;36.20;;;;;;4976818;28;47577;-51
2023/10/29 08:10:06;;;;;;;0.70;0.50;;;26.50;36.20;;;;;;4964051;28;45593;-50
2023/10/29 08:12:34;;;;;;;0.75;0.55;;;26.50;36.20;;;;;;4958585;28;45252;-50
2023/10/29 08:14:59;;;;;;;1.10;0.47;;;26.60;36.20;;;;;;4976981;28;45481;-50
2023/10/29 08:17:25;;;;;;;0.45;0.45;;;26.50;36.80;;;;;;4956017;28;45189;-51
2023/10/29 08:19:52;;;;;;;0.77;0.60;;;26.50;36.20;;;;;;4984897;28;45364;-51
2023/10/29 08:22:17;;;;;;;0.50;0.40;;;26.50;36.20;;;;;;4981697;28;45275;-50
2023/10/29 08:24:43;;;;;;;0.93;0.40;;;26.50;36.20;;;;;;4987315;28;45275;-52
2023/10/29 08:27:09;;;;;;;0.73;0.50;;;26.50;36.40;;;;;;4950367;28;45257;-53
2023/10/29 08:29:35;;;;;;;0.70;0.50;;;26.50;36.20;;;;;;4986246;28;45428;-49
2023/10/29 08:32:01;;;;;;;0.65;0.60;;;26.50;36.20;;;;;;4964424;28;45222;-53
2023/10/29 08:34:27;;;;;;;1.07;0.70;;;26.50;36.20;;;;;;4983448;28;46812;-50
2023/10/29 08:36:53;;;;;;;0.60;0.50;;;26.50;36.30;;;;;;4981495;28;45757;-51
2023/10/29 08:39:21;;;;;;;0.68;0.50;;;26.50;36.60;;;;;;4961447;28;46571;-49
2023/10/29 08:41:47;;;;;;;0.80;0.55;;;26.50;36.30;;;;;;4973249;28;45096;-52
2023/10/29 08:44:13;;;;;;;0.73;0.47;;;26.50;36.30;;;;;;4986317;28;44953;-51
2023/10/29 08:46:38;;;;;;;0.97;0.50;;;26.50;36.20;;;;;;4980066;28;45317;-52
2023/10/29 08:49:04;;;;;;;0.70;0.60;;;26.50;36.30;;;;;;4983200;28;45223;-50
2023/10/29 08:51:29;;;;;;;0.90;0.60;;;26.50;36.30;;;;;;4979482;28;44939;-53
2023/10/29 08:53:57;;;;;;;0.50;0.50;;;26.50;36.30;;;;;;4988286;28;45530;-52
2023/10/29 08:56:22;;;;;;;1.13;0.60;;;26.50;36.30;;;;;;4989678;28;45307;-50
2023/10/29 08:58:48;;;;;;;0.87;0.60;;;26.50;36.30;;;;;;4983485;28;45229;-53
2023/10/29 09:01:14;;;;;;;0.70;0.50;;;26.50;36.30;;;;;;4975175;28;45356;-53
2023/10/29 09:03:39;;;;;;;0.67;0.50;;;26.50;36.30;;;;;;4988560;28;45979;-53
2023/10/29 09:06:06;;;;;;;0.70;0.60;;;26.40;36.30;;;;;;4973174;28;44784;-50
2023/10/29 09:08:33;;;;;;;0.70;0.45;;;26.40;36.30;;;;;;4982883;28;46007;-51
2023/10/29 09:10:59;;;;;;;1.00;0.60;;;26.40;36.90;;;;;;4976193;28;45464;-52
2023/10/29 09:13:26;;;;;;;0.70;0.60;;;26.40;36.30;;;;;;4990870;28;45784;-53
2023/10/29 09:15:51;;;;;;;0.60;0.60;;;26.40;36.30;;;;;;4948741;28;45153;-53
2023/10/29 09:18:17;;;;;;;0.68;0.40;;;26.40;36.30;;;;;;4997577;28;45278;-50
2023/10/29 09:20:46;;;;;;;0.63;0.50;;;26.40;36.30;;;;;;4985329;28;45643;-50
2023/10/29 09:23:13;;;;;;;0.88;0.60;;;26.40;36.30;;;;;;4985021;28;46115;-52
2023/10/29 09:25:39;;;;;;;0.77;0.60;;;26.40;36.30;;;;;;4987032;28;45541;-51
2023/10/29 09:28:05;;;;;;;0.90;0.60;;;26.40;36.30;;;;;;4994876;28;46354;-52
2023/10/29 09:30:31;;;;;;;0.70;0.50;;;26.40;36.40;;;;;;4976267;28;45351;-52
2023/10/29 09:32:57;;;;;;;0.90;0.60;;;26.40;36.40;;;;;;4972497;28;45502;-53
2023/10/29 09:35:22;;;;;;;0.67;0.50;;;26.40;36.40;;;;;;4980754;28;45560;-53
2023/10/29 09:37:48;;;;;;;0.85;0.70;;;26.40;36.40;;;;;;4993509;28;45378;-52
2023/10/29 09:40:15;;;;;;;0.50;0.50;;;26.40;36.40;;;;;;4952805;28;46921;-53
2023/10/29 09:42:46;;;;;;;1.08;0.50;;;26.40;36.40;;;;;;4956843;28;47097;-52
2023/10/29 09:45:11;;;;;;;0.60;0.52;;;26.40;36.40;;;;;;4968813;28;45410;-54
2023/10/29 09:47:37;;;;;;;0.87;0.60;;;26.40;36.40;;;;;;4956707;28;45296;-54
2023/10/29 09:50:03;;;;;;;0.70;0.50;;;26.40;36.40;;;;;;4960604;28;46252;-48
2023/10/29 09:52:29;;;;;;;0.87;0.60;;;26.40;36.40;;;;;;4973764;28;46826;-50
2023/10/29 09:54:56;;;;;;;0.57;0.50;;;26.40;36.50;;;;;;4968527;28;45492;-51
2023/10/29 09:57:22;;;;;;;1.10;0.60;;;26.40;36.50;;;;;;4952500;28;45278;-51
2023/10/29 09:59:47;;;;;;;0.82;0.60;;;26.40;36.50;;;;;;4994342;28;45292;-52
2023/10/29 10:02:14;;;;;;;1.15;0.70;;;26.40;36.50;;;;;;4972643;28;45803;-51
2023/10/29 10:04:39;;;;;;;1.10;0.60;;;26.40;36.50;;;;;;4992892;28;45466;-52
2023/10/29 10:07:05;;;;;;;1.27;0.50;;;26.30;36.40;;;;;;4966944;28;45702;-51
2023/10/29 10:09:53;;;;;;;0.88;0.60;;;26.30;36.40;;;;;;4968641;28;45989;-52
2023/10/29 10:12:19;;;;;;;0.85;0.60;;;26.30;36.50;;;;;;4981072;28;46152;-52
2023/10/29 10:14:44;;;;;;;0.88;0.57;;;26.30;36.50;;;;;;4992340;28;45562;-52
2023/10/29 10:17:10;;;;;;;0.63;0.50;;;26.30;36.50;;;;;;4973399;28;45352;-54
2023/10/29 10:19:36;;;;;;;0.65;0.65;;;26.30;36.50;;;;;;4958129;28;45525;-52
2023/10/29 10:22:03;;;;;;;0.73;0.50;;;26.40;36.60;;;;;;4963046;28;46042;-52
2023/10/29 10:24:38;;;;;;;0.80;0.63;;;26.30;36.50;;;;;;4998432;28;45387;-53
2023/10/29 10:27:04;;;;;;;0.90;0.53;;;26.30;36.50;;;;;;4963724;28;45269;-52
2023/10/29 10:29:31;;;;;;;1.73;0.73;;;26.30;36.50;;;;;;4987622;28;46587;-51
2023/10/29 10:32:04;;;;;;;1.23;0.60;;;26.30;36.60;;;;;;4932847;28;45358;-50
2023/10/29 10:34:31;;;;;;;1.23;0.60;;;26.30;36.60;;;;;;4983468;28;45425;-54
2023/10/29 10:37:04;;;;;;;0.63;0.40;;;26.30;36.60;;;;;;4938846;28;45681;-52
2023/10/29 10:39:33;;;;;;;1.67;0.60;;;26.30;36.60;;;;;;4982514;28;45548;-52
2023/10/29 10:42:03;;;;;;;0.80;0.70;;;26.30;36.60;;;;;;4939892;28;46039;-54
2023/10/29 10:44:29;;;;;;;1.52;0.73;;;26.30;36.60;;;;;;4965840;28;45470;-52
2023/10/29 10:46:56;;;;;;;0.85;0.60;;;26.30;36.60;;;;;;4967181;28;45392;-53
2023/10/29 10:49:23;;;;;;;0.97;0.70;;;26.30;36.60;;;;;;4984952;28;45260;-55
2023/10/29 10:51:58;;;;;;;1.00;0.70;;;26.30;36.60;;;;;;4958913;28;45654;-53
2023/10/29 10:54:24;;;;;;;1.08;0.70;;;26.30;36.60;;;;;;4974186;28;45524;-56
2023/10/29 10:56:54;;;;;;;1.00;0.60;;;26.30;36.60;;;;;;4977067;28;45739;-55
2023/10/29 10:59:20;;;;;;;1.53;0.67;;;26.30;36.70;;;;;;4990631;28;45587;-52
2023/10/29 11:01:46;;;;;;;1.40;0.63;;;26.20;36.60;;;;;;4960414;28;46491;-55
2023/10/29 11:04:12;;;;;;;0.70;0.57;;;26.30;36.70;;;;;;4976096;28;45271;-53
2023/10/29 11:06:38;;;;;;;1.50;0.80;;;26.30;36.80;;;;;;4977301;28;45662;-55
2023/10/29 11:09:14;;;;;;;0.75;0.60;;;26.20;36.60;;;;;;4974744;28;45040;-53
2023/10/29 11:11:53;;;;;;;0.70;0.63;;;26.20;36.70;;;;;;4959304;28;46086;-51
2023/10/29 11:14:19;;;;;;;0.90;0.60;;;26.20;36.70;;;;;;4978529;28;45340;-53
2023/10/29 11:16:48;;;;;;;0.70;0.50;;;26.20;36.70;;;;;;4965412;28;45313;-51
2023/10/29 11:19:44;;;;;;;0.63;0.60;;;26.20;37.30;;;;;;4979940;28;45617;-52
2023/10/29 11:22:22;;;;;;;0.90;0.53;;;26.20;36.70;;;;;;4971371;28;45766;-50
2023/10/29 11:25:08;;;;;;;1.00;0.55;;;26.20;36.70;;;;;;4988584;28;46084;-52
2023/10/29 11:27:47;;;;;;;0.80;0.60;;;26.20;36.80;;;;;;4943118;28;44887;-54
2023/10/29 11:30:22;;;;;;;1.27;0.88;;;26.20;36.70;;;;;;4980797;28;45273;-51
2023/10/29 11:33:05;;;;;;;1.60;0.77;;;26.20;36.80;;;;;;4978149;28;45135;-52
2023/10/29 11:35:31;;;;;;;1.20;0.90;;;26.20;36.80;;;;;;4966181;28;45364;-51
2023/10/29 11:37:59;;;;;;;0.90;0.60;;;26.20;36.80;;;;;;4980438;28;44995;-51
2023/10/29 11:40:25;;;;;;;0.90;0.80;;;26.20;36.90;;;;;;4973124;28;44848;-53
2023/10/29 11:42:51;;;;;;;1.00;0.70;;;26.20;36.80;;;;;;4977698;28;45573;-51
2023/10/29 11:45:25;;;;;;;1.27;0.90;;;26.20;36.80;;;;;;4962806;28;46192;-51
2023/10/29 11:48:07;;;;;;;1.20;0.75;;;26.20;36.90;;;;;;4975959;28;45251;-52
2023/10/29 11:50:33;;;;;;;1.23;0.65;;;26.20;36.90;;;;;;4970201;28;45194;-50
2023/10/29 11:52:58;;;;;;;0.88;0.70;;;26.20;36.90;;;;;;4962944;28;46561;-48
2023/10/29 11:55:28;;;;;;;1.02;0.70;;;26.20;36.90;;;;;;4929841;28;45467;-51
2023/10/29 11:57:53;;;;;;;1.20;0.70;;;26.20;36.90;;;;;;4969491;28;45767;-50
2023/10/29 12:00:21;;;;;;;0.77;0.50;;;26.20;36.90;;;;;;4943112;28;47340;-51
2023/10/29 12:02:48;;;;;;;0.60;0.60;;;26.20;36.90;;;;;;4958300;28;45299;-51
2023/10/29 12:05:15;;;;;;;0.90;0.70;;;26.20;37.00;;;;;;4936681;28;45220;-54
2023/10/29 12:07:40;;;;;;;1.15;0.68;;;26.20;36.90;;;;;;4949411;28;45262;-50
2023/10/29 12:10:07;;;;;;;0.70;0.52;;;26.20;37.00;;;;;;4953133;28;45274;-50
2023/10/29 12:12:33;;;;;;;1.05;0.80;;;26.20;37.00;;;;;;4950532;28;45543;-49
2023/10/29 12:14:58;;;;;;;0.95;0.50;;;26.20;37.00;;;;;;4925214;28;45462;-50
2023/10/29 12:17:24;;;;;;;1.10;0.80;;;26.10;37.00;;;;;;4939434;28;45344;-54
2023/10/29 12:19:49;;;;;;;0.83;0.70;;;26.10;37.00;;;;;;4965844;28;46151;-55
2023/10/29 12:22:27;;;;;;;1.50;0.70;;;26.10;37.00;;;;;;4948708;28;45407;-52
2023/10/29 12:25:00;;;;;;;1.08;0.75;;;26.20;37.00;;;;;;4962316;28;44767;-52
2023/10/29 12:27:27;;;;;;;0.85;0.50;;;26.20;37.10;;;;;;4956083;28;46543;-53
2023/10/29 12:29:52;;;;;;;0.70;0.70;;;26.10;37.00;;;;;;4934032;28;45480;-51
2023/10/29 12:32:25;;;;;;;1.10;0.60;;;26.10;37.00;;;;;;4943468;28;46204;-51
2023/10/29 12:34:54;;;;;;;1.00;0.68;;;26.10;37.00;;;;;;4960515;28;45521;-52
2023/10/29 12:37:28;;;;;;;1.10;0.68;;;26.10;37.10;;;;;;4927395;28;45325;-52
2023/10/29 12:39:59;;;;;;;1.13;0.80;;;26.10;37.10;;;;;;4077593;28;10001011;-51
2023/10/29 12:42:53;;;;;;;1.02;0.70;;;26.10;37.10;;;;;;4966335;28;45712;-55
2023/10/29 12:45:37;;;;;;;0.60;0.60;;;26.10;37.10;;;;;;4979040;28;46389;-53
2023/10/29 12:48:12;;;;;;;0.80;0.80;;;26.10;37.20;;;;;;4967999;28;45321;-52
2023/10/29 12:50:51;;;;;;;1.40;0.70;;;26.10;37.20;;;;;;4978933;28;45683;-53
2023/10/29 12:53:30;;;;;;;0.80;0.80;;;26.10;37.20;;;;;;4999495;28;45233;-54
2023/10/29 12:55:57;;;;;;;0.63;0.63;;;26.10;37.20;;;;;;4993556;28;45305;-52
2023/10/29 12:58:23;;;;;;;0.82;0.70;;;26.10;37.20;;;;;;4996535;28;46126;-55
2023/10/29 13:00:50;;;;;;;1.33;0.70;;;26.10;37.20;;;;;;4996602;28;44777;-57
2023/10/29 13:03:15;;;;;;;1.30;0.60;;;26.10;37.20;;;;;;5003336;28;45693;-52
2023/10/29 13:05:41;;;;;;;1.35;0.70;;;26.10;37.30;;;;;;4966175;28;45768;-52
2023/10/29 13:08:08;;;;;;;0.80;0.70;;;26.10;37.20;;;;;;4989824;28;45558;-51
2023/10/29 13:10:35;;;;;;;1.30;0.68;;;26.10;37.20;;;;;;4998692;28;45500;-54
2023/10/29 13:13:01;;;;;;;0.80;0.70;;;26.10;37.90;;;;;;5007858;28;45233;-54
2023/10/29 13:15:29;;;;;;;0.85;0.65;;;26.10;37.40;;;;;;4993720;28;45178;-52
2023/10/29 13:17:55;;;;;;;0.63;0.60;;;26.10;37.30;;;;;;4988969;28;45352;-50
2023/10/29 13:20:21;;;;;;;1.17;0.80;;;26.10;37.30;;;;;;4953981;28;45371;-52
2023/10/29 13:22:47;;;;;;;1.10;0.60;;;26.10;37.40;;;;;;4995065;28;45371;-50
2023/10/29 13:25:13;;;;;;;1.00;0.70;;;26.00;37.30;;;;;;4987646;28;46360;-53
2023/10/29 13:27:41;;;;;;;0.98;0.70;;;26.10;37.40;;;;;;4976646;28;46791;-53
2023/10/29 13:30:07;;;;;;;1.55;0.90;;;26.00;37.30;;;;;;4985307;28;45260;-54
2023/10/29 13:32:34;;;;;;;1.13;0.83;;;26.10;37.40;;;;;;4989420;28;45231;-53
2023/10/29 13:35:00;;;;;;;1.20;0.80;;;26.10;37.40;;;;;;5001462;28;44975;-53
2023/10/29 13:37:26;;;;;;;1.60;0.90;;;26.00;37.30;;;;;;4971810;28;45146;-49
2023/10/29 13:39:52;;;;;;;1.70;1.10;;;26.00;37.40;;;;;;5002783;28;45291;-52
2023/10/29 13:42:18;;;;;;;1.70;0.83;;;26.00;37.30;;;;;;4974059;28;45493;-51
2023/10/29 13:44:44;;;;;;;0.98;0.80;;;26.00;37.40;;;;;;5001456;28;45683;-50
2023/10/29 13:47:09;;;;;;;0.85;0.70;;;26.00;37.40;;;;;;4984477;28;45481;-54
2023/10/29 13:49:35;;;;;;;1.30;0.80;;;26.00;37.40;;;;;;5009083;28;44953;-52
2023/10/29 13:52:00;;;;;;;0.80;0.70;;;26.00;37.40;;;;;;4997029;28;44788;-51
2023/10/29 13:54:26;;;;;;;0.97;0.80;;;26.00;37.50;;;;;;5013833;28;45303;-53
2023/10/29 13:56:51;;;;;;;1.23;1.00;;;26.00;37.40;;;;;;4990629;28;46844;-52
2023/10/29 13:59:18;;;;;;;1.30;0.90;;;26.00;37.50;;;;;;4989068;28;45147;-52
2023/10/29 14:01:43;;;;;;;0.93;0.80;;;26.00;37.50;;;;;;4996016;28;46144;-52
2023/10/29 14:04:09;;;;;;;1.00;0.83;;;26.00;37.50;;;;;;4985721;28;45455;-50
2023/10/29 14:06:35;;;;;;;1.30;0.90;;;26.00;37.50;;;;;;5014486;28;45559;-49
2023/10/29 14:09:02;;;;;;;1.10;0.88;;;26.00;37.50;;;;;;5006024;28;46208;-49
2023/10/29 14:11:27;;;;;;;0.97;0.87;;;26.00;37.50;;;;;;5012417;28;44745;-51
2023/10/29 14:13:55;;;;;;;1.47;0.90;;;26.00;37.50;;;;;;4993378;28;46788;-51
2023/10/29 14:16:36;;;;;;;1.80;0.75;;;26.00;37.50;;;;;;5006641;28;46045;-54
2023/10/29 14:19:03;;;;;;;1.38;0.90;;;26.00;37.50;;;;;;5025263;28;45289;-53
2023/10/29 14:21:28;;;;;;;1.92;0.90;;;26.00;37.60;;;;;;5012863;28;45351;-52
2023/10/29 14:23:54;;;;;;;1.00;0.80;;;26.00;37.50;;;;;;5014795;28;45180;-53
2023/10/29 14:26:20;;;;;;;1.00;0.73;;;26.00;37.60;;;;;;5011045;28;45976;-50
2023/10/29 14:28:45;;;;;;;1.20;0.82;;;26.00;37.60;;;;;;5025543;28;45128;-53
2023/10/29 14:31:11;;;;;;;1.00;0.90;;;26.00;37.60;;;;;;4990187;28;45963;-51
2023/10/29 14:33:37;;;;;;;1.33;0.98;;;26.00;37.60;;;;;;5000333;28;45279;-51
2023/10/29 14:36:02;;;;;;;1.10;0.83;;;26.00;37.60;;;;;;5013342;28;45541;-51
2023/10/29 14:38:28;;;;;;;2.03;0.90;;;26.00;37.60;;;;;;5020996;28;45355;-55
2023/10/29 14:40:55;;;;;;;1.40;0.90;;;26.00;37.70;;;;;;5009661;28;45341;-52
2023/10/29 14:43:21;;;;;;;1.35;0.90;;;26.00;37.70;;;;;;5015061;28;44855;-51
2023/10/29 14:45:51;;;;;;;1.10;0.80;;;26.00;37.70;;;;;;4987483;28;45902;-51
2023/10/29 14:48:16;;;;;;;1.88;0.90;;;25.90;37.60;;;;;;5017302;28;45171;-51
2023/10/29 14:50:42;;;;;;;0.97;0.90;;;25.90;37.60;;;;;;5010957;28;45381;-52
2023/10/29 14:53:08;;;;;;;1.00;0.90;;;25.90;37.70;;;;;;5012309;28;45199;-49
2023/10/29 14:55:34;;;;;;;1.48;1.10;;;25.90;37.70;;;;;;4998735;28;46001;-50
2023/10/29 14:57:59;;;;;;;1.67;1.00;;;25.90;37.70;;;;;;5025685;28;45265;-50
2023/10/29 15:00:25;;;;;;;1.27;0.93;;;25.90;37.70;;;;;;4992148;28;46162;-49
2023/10/29 15:02:50;;;;;;;1.90;1.00;;;25.90;37.70;;;;;;5001165;28;45828;-52
2023/10/29 15:05:16;;;;;;;1.70;1.10;;;26.00;37.80;;;;;;5021719;22;46498;-50
2023/10/29 15:07:41;;;;;;;1.50;1.10;;;25.90;37.70;;;;;;5001657;28;45605;-49
2023/10/29 15:10:10;;;;;;;1.20;0.90;;;25.90;37.70;;;;;;5000821;28;45223;-52
2023/10/29 15:12:36;;;;;;;0.85;0.80;;;25.90;37.70;;;;;;4999821;28;45819;-51
2023/10/29 15:15:03;;;;;;;1.30;1.05;;;25.90;37.80;;;;;;5003792;28;45860;-50
2023/10/29 15:17:29;;;;;;;1.08;0.98;;;25.90;37.80;;;;;;4955503;28;45286;-51
2023/10/29 15:19:57;;;;;;;1.10;1.00;;;25.90;37.80;;;;;;4992352;28;45699;-52
2023/10/29 15:22:23;;;;;;;1.10;0.87;;;25.90;37.80;;;;;;4986609;28;46109;-51
2023/10/29 15:24:49;;;;;;;1.43;0.97;;;25.90;37.90;;;;;;4999620;28;45841;-52
2023/10/29 15:27:14;;;;;;;1.40;0.90;;;25.90;37.80;;;;;;4994780;28;45656;-50
2023/10/29 15:29:41;;;;;;;1.73;1.10;;;25.90;37.80;;;;;;5000524;28;45800;-52
2023/10/29 15:32:07;;;;;;;1.17;1.00;;;25.90;37.80;;;;;;4963514;28;45277;-50
2023/10/29 15:34:32;;;;;;;1.58;1.00;;;25.90;37.90;;;;;;4999615;28;45233;-51
2023/10/29 15:36:58;;;;;;;1.02;0.93;;;25.90;37.80;;;;;;4999972;28;47086;-50
2023/10/29 15:39:23;;;;;;;1.47;0.90;;;25.90;37.80;;;;;;4990539;28;45291;-51
2023/10/29 15:41:49;;;;;;;1.00;0.90;;;25.90;37.80;;;;;;4987067;28;46266;-52
2023/10/29 15:44:15;;;;;;;1.30;1.00;;;25.90;37.90;;;;;;5009325;28;45304;-50
2023/10/29 15:46:43;;;;;;;0.90;0.80;;;25.90;37.90;;;;;;4989138;28;45262;-52
2023/10/29 15:49:09;;;;;;;1.30;1.00;;;25.90;37.90;;;;;;5006837;28;45216;-52
2023/10/29 15:51:34;;;;;;;1.00;0.90;;;25.90;37.90;;;;;;4991914;28;46114;-52
2023/10/29 15:54:00;;;;;;;1.00;0.90;;;25.90;37.90;;;;;;5007075;28;44955;-54
2023/10/29 15:56:26;;;;;;;1.60;0.90;;;25.90;37.90;;;;;;4998785;28;45501;-55
2023/10/29 15:58:52;;;;;;;1.27;1.00;;;25.90;38.00;;;;;;5009716;28;45389;-52
2023/10/29 16:01:18;;;;;;;2.60;1.20;;;25.90;38.00;;;;;;4970875;28;45366;-58
2023/10/29 16:03:47;;;;;;;1.50;1.05;;;25.90;38.00;;;;;;4982547;28;46167;-54
2023/10/29 16:06:13;;;;;;;1.70;0.93;;;25.90;38.00;;;;;;4971993;28;46329;-57
2023/10/29 16:08:38;;;;;;;1.33;1.00;;;25.90;38.10;;;;;;4997274;28;44836;-56
2023/10/29 16:11:06;;;;;;;1.70;0.90;;;25.90;38.10;;;;;;4989745;28;45717;-54
2023/10/29 16:13:31;;;;;;;1.33;0.90;;;25.90;38.10;;;;;;4978724;28;46206;-54
2023/10/29 16:15:57;;;;;;;1.38;0.90;;;25.90;38.10;;;;;;4985974;28;47050;-58
2023/10/29 16:18:22;;;;;;;1.73;0.87;;;25.90;38.10;;;;;;4997064;28;45487;-55
2023/10/29 16:20:48;;;;;;;1.97;1.07;;;25.90;38.10;;;;;;4989978;28;46246;-57
2023/10/29 16:23:14;;;;;;;1.40;1.03;;;25.90;38.20;;;;;;4983594;28;45481;-55
2023/10/29 16:25:39;;;;;;;1.67;1.10;;;25.90;38.20;;;;;;4964433;28;45667;-57
2023/10/29 16:28:05;;;;;;;1.50;1.10;;;25.90;38.20;;;;;;5004860;28;45332;-58
2023/10/29 16:30:31;;;;;;;1.23;1.10;;;26.00;38.30;;;;;;4972103;28;45354;-51
2023/10/29 16:32:58;;;;;;;1.50;1.10;;;26.00;38.20;;;;;;4998240;28;46478;-56
2023/10/29 16:35:23;;;;;;;1.57;1.10;;;26.00;38.20;;;;;;4972445;28;45350;-57
2023/10/29 16:37:49;;;;;;;2.20;0.87;;;26.00;38.20;;;;;;5004621;28;45312;-56
2023/10/29 16:40:15;;;;;;;1.17;0.90;;;26.00;38.10;;;;;;4979243;28;45141;-53
2023/10/29 16:42:40;;;;;;;1.50;0.90;;;26.00;38.10;;;;;;4981816;28;45901;-58
2023/10/29 16:45:08;;;;;;;2.60;1.13;;;26.10;37.60;;;;;;4983451;28;47467;-58
2023/10/29 16:47:34;;;;;;;1.60;0.97;;;26.10;38.20;;;;;;4993130;28;45318;-56